Bremen, Ohio
Current Conditions -  °F | °C
As of 11:53 PM on Tuesday 25 Nov 2014 (Local Time) from KLHQ Reporting Station
Clear Clear  
Wind Chill: 28°   Ceiling: Unl
Heat Index: 28°   Visibility: 7mi
Dew Point: 24°   Wind: 3mph
Humidity: 85%   Direction: 360°N
Pressure: 30.18"   Gusts: NA
Location:  39.7°N, 82.43°W
Report Text: KLHQ 260453Z AUTO 36003KT 7SM CLR M02/M04 A3018 RMK AO2 SLP227 T10221044 400611028
Loading
Personal Weather Stations






























Interactive Weather Map New forecast layout! Learn more

10-Day Weather Forecast

Advertisements
Track Severe Weather on mobile